Time;durP1;ratioP1;P1;durP2;ratioP2;P2;SDS_P1;SDS_P2;PMS_P1;PMS_P2;Temp;Humidity;BMP_temperature;BMP_pressure;BME280_temperature;BME280_humidity;BME280_pressure;Samples;Min_cycle;Max_cycle;Signal;HPM_P1;HPM_P2
2022/02/02 00:00:09;;;;;;;3.60;1.08;;;;;;;;;;5032291;28;20091;-71
2022/02/02 00:02:46;;;;;;;5.72;1.15;;;;;;;;;;5032379;28;20124;-71
2022/02/02 00:07:59;;;;;;;3.67;1.02;;;;;;;;;;5031947;28;20045;-68
2022/02/02 00:13:10;;;;;;;3.78;1.25;;;;;;;;;;5028842;28;20030;-70
2022/02/02 00:21:07;;;;;;;3.45;0.90;;;;;;;;;;5031621;28;20409;-70
2022/02/02 00:23:41;;;;;;;5.47;1.25;;;;;;;;;;5030686;28;20052;-71
2022/02/02 00:26:14;;;;;;;5.70;0.93;;;;;;;;;;5043141;28;20045;-71
2022/02/02 00:28:46;;;;;;;;;;;;;;;;;;5052373;28;20120;-71
2022/02/02 00:31:20;;;;;;;3.00;0.73;;;;;;;;;;5034041;28;20281;-71
2022/02/02 00:33:54;;;;;;;4.03;1.08;;;;;;;;;;5051889;28;20124;-72
2022/02/02 00:36:25;;;;;;;2.90;0.98;;;;;;;;;;5034602;28;20393;-71
2022/02/02 00:38:52;;;;;;;3.40;0.77;;;;;;;;;;5052210;28;20103;-71
2022/02/02 00:41:20;;;;;;;5.60;1.33;;;;;;;;;;5055542;28;20094;-71
2022/02/02 00:43:54;;;;;;;4.38;1.00;;;;;;;;;;5055540;28;20041;-69
2022/02/02 00:46:25;;;;;;;5.90;1.10;;;;;;;;;;5055345;28;20161;-70
2022/02/02 00:48:59;;;;;;;3.22;1.02;;;;;;;;;;5054690;28;20135;-71
2022/02/02 00:51:34;;;;;;;4.75;1.70;;;;;;;;;;5055569;28;20144;-71
2022/02/02 00:54:02;;;;;;;3.80;1.20;;;;;;;;;;5037444;28;20488;-72
2022/02/02 00:56:29;;;;;;;3.40;1.20;;;;;;;;;;5055087;28;20048;-72
2022/02/02 00:58:57;;;;;;;4.85;0.93;;;;;;;;;;5055208;28;20127;-72
2022/02/02 01:01:26;;;;;;;6.70;1.10;;;;;;;;;;5055039;28;20484;-71
2022/02/02 01:03:54;;;;;;;3.17;1.00;;;;;;;;;;5037209;28;20100;-71
2022/02/02 01:06:22;;;;;;;2.05;1.02;;;;;;;;;;5054912;28;20454;-71
2022/02/02 01:09:15;;;;;;;2.30;1.15;;;;;;;;;;5054574;28;20123;-71
2022/02/02 01:19:41;;;;;;;2.58;0.80;;;;;;;;;;5054803;28;20037;-71
2022/02/02 01:30:09;;;;;;;1.95;0.80;;;;;;;;;;5036810;28;20118;-71
2022/02/02 01:32:37;;;;;;;2.90;0.85;;;;;;;;;;5054207;28;20461;-72
2022/02/02 01:35:12;;;;;;;6.30;1.25;;;;;;;;;;5055002;28;20572;-69
2022/02/02 01:37:40;;;;;;;2.45;0.90;;;;;;;;;;5038058;28;20049;-72
2022/02/02 01:40:16;;;;;;;3.83;1.27;;;;;;;;;;5054614;28;20033;-71
2022/02/02 01:42:50;;;;;;;4.78;1.02;;;;;;;;;;5052812;28;20051;-69
2022/02/02 01:45:49;;;;;;;6.75;1.40;;;;;;;;;;5052136;28;20389;-72
2022/02/02 01:48:43;;;;;;;5.80;1.30;;;;;;;;;;5054465;28;20065;-72
2022/02/02 01:56:15;;;;;;;5.30;1.15;;;;;;;;;;5054081;28;20048;-72
2022/02/02 01:59:08;;;;;;;5.63;1.38;;;;;;;;;;5054477;28;20120;-71
2022/02/02 02:01:35;;;;;;;4.55;1.10;;;;;;;;;;5054427;28;20488;-71
2022/02/02 02:04:03;;;;;;;1.80;0.98;;;;;;;;;;5054125;28;20049;-71
2022/02/02 02:06:30;;;;;;;4.47;1.10;;;;;;;;;;5054057;28;20057;-71
2022/02/02 02:08:58;;;;;;;4.35;1.05;;;;;;;;;;5053580;28;20041;-71
2022/02/02 02:11:25;;;;;;;6.47;1.25;;;;;;;;;;5053947;28;20060;-71
2022/02/02 02:16:33;;;;;;;4.18;1.00;;;;;;;;;;5036304;28;20052;-69
2022/02/02 02:19:00;;;;;;;6.75;1.80;;;;;;;;;;5053721;28;20051;-69
2022/02/02 02:21:28;;;;;;;2.70;1.10;;;;;;;;;;5053556;28;20495;-71
2022/02/02 02:23:58;;;;;;;5.88;1.48;;;;;;;;;;5035227;28;20044;-71
2022/02/02 02:26:28;;;;;;;5.07;1.25;;;;;;;;;;5035377;28;20049;-69
2022/02/02 02:34:53;;;;;;;3.55;1.40;;;;;;;;;;5053266;28;20481;-69
2022/02/02 02:37:27;;;;;;;4.38;1.23;;;;;;;;;;5035247;28;20045;-70
2022/02/02 02:56:20;;;;;;;7.72;1.40;;;;;;;;;;5053292;28;20052;-71
2022/02/02 04:09:23;;;;;;;6.20;1.20;;;;;;;;;;5052102;28;20128;-69
2022/02/02 04:55:54;;;;;;;1.00;0.52;;;;;;;;;;5055526;28;20454;-69
2022/02/02 05:51:57;;;;;;;5.45;2.53;;;;;;;;;;5034317;28;20147;-71
2022/02/02 05:54:24;;;;;;;8.32;2.38;;;;;;;;;;5034482;28;20469;-69
2022/02/02 05:56:53;;;;;;;9.52;2.30;;;;;;;;;;5034033;28;20049;-69
2022/02/02 05:59:25;;;;;;;2.20;1.60;;;;;;;;;;5034524;28;20414;-69
2022/02/02 06:01:59;;;;;;;3.72;1.42;;;;;;;;;;5021699;28;20480;-71
2022/02/02 06:04:27;;;;;;;2.20;1.30;;;;;;;;;;5034454;28;20404;-70
2022/02/02 06:07:01;;;;;;;6.70;1.80;;;;;;;;;;5034302;28;20501;-70
2022/02/02 06:09:30;;;;;;;3.20;1.40;;;;;;;;;;5033794;28;20060;-72
2022/02/02 06:11:59;;;;;;;4.28;1.10;;;;;;;;;;5034459;28;20500;-72
2022/02/02 06:14:29;;;;;;;0.98;0.80;;;;;;;;;;5000327;28;20075;-70
2022/02/02 06:17:02;;;;;;;3.05;1.30;;;;;;;;;;5034013;28;20063;-72
2022/02/02 06:19:36;;;;;;;2.92;0.88;;;;;;;;;;5033913;28;20037;-72
2022/02/02 06:22:16;;;;;;;4.43;1.70;;;;;;;;;;5015747;28;20045;-72
2022/02/02 06:24:48;;;;;;;9.48;1.70;;;;;;;;;;5035423;28;20445;-70
2022/02/02 06:27:23;;;;;;;5.45;2.50;;;;;;;;;;5033353;28;20045;-70
2022/02/02 06:29:56;;;;;;;4.60;1.30;;;;;;;;;;5015598;28;20353;-72
2022/02/02 06:32:26;;;;;;;1.67;1.10;;;;;;;;;;5015878;28;20053;-72
2022/02/02 06:34:58;;;;;;;2.97;1.60;;;;;;;;;;5033945;28;20049;-72
2022/02/02 06:37:26;;;;;;;4.88;1.80;;;;;;;;;;5017485;28;20033;-69
2022/02/02 06:39:55;;;;;;;5.07;1.77;;;;;;;;;;5033310;28;20048;-69
2022/02/02 06:42:22;;;;;;;4.63;1.50;;;;;;;;;;5015735;28;20056;-69
2022/02/02 06:44:51;;;;;;;6.50;1.90;;;;;;;;;;5038017;28;20045;-69
2022/02/02 06:47:19;;;;;;;8.90;1.40;;;;;;;;;;5033003;28;20103;-69
2022/02/02 06:50:01;;;;;;;8.38;2.20;;;;;;;;;;5037694;28;20128;-72
2022/02/02 06:52:34;;;;;;;5.25;2.60;;;;;;;;;;5033055;28;20045;-70
2022/02/02 06:55:25;;;;;;;7.45;2.03;;;;;;;;;;5014039;28;20052;-71
2022/02/02 06:58:03;;;;;;;;;;;;;;;;;;5032713;28;20128;-69
2022/02/02 07:00:48;;;;;;;5.50;1.80;;;;;;;;;;5032380;28;19928;-69
2022/02/02 07:09:46;;;;;;;4.53;2.25;;;;;;;;;;5034139;28;20126;-71
2022/02/02 07:12:22;;;;;;;7.45;1.80;;;;;;;;;;5036999;28;20124;-69
2022/02/02 07:15:15;;;;;;;9.00;2.25;;;;;;;;;;5014936;28;20049;-70
2022/02/02 07:20:22;;;;;;;3.53;2.03;;;;;;;;;;5015471;28;20037;-71
2022/02/02 07:28:37;;;;;;;4.00;2.00;;;;;;;;;;5032503;28;20095;-70
2022/02/02 07:31:21;;;;;;;5.13;2.63;;;;;;;;;;5032776;28;20457;-71
2022/02/02 07:33:51;;;;;;;3.42;2.72;;;;;;;;;;5036698;28;20129;-69
2022/02/02 07:36:30;;;;;;;8.48;3.67;;;;;;;;;;5052212;28;20066;-70
2022/02/02 07:39:03;;;;;;;6.00;3.40;;;;;;;;;;5052305;28;20033;-70
2022/02/02 07:41:35;;;;;;;4.60;2.50;;;;;;;;;;5052669;28;20033;-71
2022/02/02 07:44:09;;;;;;;13.60;10.23;;;;;;;;;;5052352;28;20045;-70
2022/02/02 07:46:38;;;;;;;8.23;3.75;;;;;;;;;;5052312;28;20065;-70
2022/02/02 07:49:09;;;;;;;5.30;2.20;;;;;;;;;;5052204;28;20053;-70
2022/02/02 07:51:37;;;;;;;8.85;1.92;;;;;;;;;;5046570;28;20120;-70
2022/02/02 07:54:09;;;;;;;10.90;1.65;;;;;;;;;;5041583;28;20147;-70
2022/02/02 07:56:42;;;;;;;4.35;2.05;;;;;;;;;;5047495;28;20106;-70
2022/02/02 07:59:12;;;;;;;;;;;;;;;;;;5052819;28;20110;-70
2022/02/02 08:01:42;;;;;;;2.80;1.35;;;;;;;;;;5040203;28;19920;-72
2022/02/02 08:04:20;;;;;;;1.52;0.90;;;;;;;;;;5044917;28;20029;-71
2022/02/02 08:06:52;;;;;;;2.05;1.40;;;;;;;;;;5050719;28;20079;-71
2022/02/02 08:09:45;;;;;;;5.07;1.40;;;;;;;;;;5037655;28;20122;-74
2022/02/02 08:12:18;;;;;;;6.30;2.10;;;;;;;;;;5055311;28;20053;-71
2022/02/02 08:14:54;;;;;;;4.22;1.70;;;;;;;;;;5022155;28;20133;-74
2022/02/02 08:17:22;;;;;;;7.30;2.20;;;;;;;;;;5038262;28;20576;-71
2022/02/02 08:19:52;;;;;;;4.97;2.10;;;;;;;;;;5055723;28;20041;-71
2022/02/02 08:22:20;;;;;;;2.47;1.50;;;;;;;;;;5055618;28;20041;-72
2022/02/02 08:24:48;;;;;;;4.80;1.90;;;;;;;;;;5056019;28;20045;-70
2022/02/02 08:27:15;;;;;;;4.53;2.83;;;;;;;;;;5055392;28;20048;-73
2022/02/02 08:29:43;;;;;;;5.38;2.83;;;;;;;;;;5055700;28;20049;-72
2022/02/02 08:32:12;;;;;;;3.22;1.70;;;;;;;;;;5055925;28;20041;-71
2022/02/02 08:34:45;;;;;;;11.27;4.03;;;;;;;;;;5037402;28;20447;-71
2022/02/02 08:37:13;;;;;;;3.80;2.20;;;;;;;;;;5055603;28;20128;-72
2022/02/02 08:40:10;;;;;;;2.45;1.50;;;;;;;;;;5055391;28;20052;-74
2022/02/02 08:42:39;;;;;;;4.10;1.42;;;;;;;;;;5055429;28;20133;-71
2022/02/02 08:45:25;;;;;;;5.22;1.40;;;;;;;;;;5055061;28;20045;-70
2022/02/02 08:48:02;;;;;;;10.05;2.42;;;;;;;;;;5055581;28;20515;-73
2022/02/02 08:50:40;;;;;;;5.10;1.42;;;;;;;;;;5037747;28;20326;-75
2022/02/02 08:53:16;;;;;;;3.63;1.70;;;;;;;;;;5055806;28;20488;-72
2022/02/02 08:58:35;;;;;;;5.57;1.50;;;;;;;;;;5055224;28;20079;-74
2022/02/02 09:01:08;;;;;;;2.67;1.35;;;;;;;;;;5053645;28;20051;-71
2022/02/02 09:06:21;;;;;;;3.10;1.30;;;;;;;;;;5054851;28;20049;-70
2022/02/02 09:09:00;;;;;;;6.63;1.42;;;;;;;;;;5055222;28;20461;-69
2022/02/02 09:25:34;;;;;;;3.25;1.20;;;;;;;;;;5054596;28;20051;-71
2022/02/02 09:34:01;;;;;;;4.00;1.20;;;;;;;;;;5054550;28;20543;-72
2022/02/02 09:36:32;;;;;;;2.45;1.00;;;;;;;;;;5054555;28;20120;-74
2022/02/02 09:39:05;;;;;;;2.47;0.90;;;;;;;;;;5054499;28;20045;-74
2022/02/02 09:44:18;;;;;;;2.58;1.00;;;;;;;;;;5054368;28;20055;-72
2022/02/02 09:49:34;;;;;;;3.80;1.00;;;;;;;;;;5036526;28;20037;-71
2022/02/02 09:52:12;;;;;;;4.85;0.70;;;;;;;;;;5054455;28;20037;-70
2022/02/02 09:55:00;;;;;;;6.68;1.10;;;;;;;;;;5053946;28;20078;-70
2022/02/02 10:06:02;;;;;;;3.17;1.10;;;;;;;;;;5060318;22;20115;-70
2022/02/02 10:11:49;;;;;;;4.38;1.17;;;;;;;;;;5053481;28;20048;-70
2022/02/02 10:14:30;;;;;;;5.15;1.00;;;;;;;;;;5039205;28;20033;-73
2022/02/02 10:16:58;;;;;;;3.20;1.20;;;;;;;;;;5019304;28;20465;-71
2022/02/02 10:19:34;;;;;;;9.70;1.50;;;;;;;;;;5035513;28;20571;-71
2022/02/02 10:22:18;;;;;;;5.80;1.00;;;;;;;;;;5053331;28;20051;-74
2022/02/02 10:24:46;;;;;;;6.28;1.15;;;;;;;;;;5053024;28;20043;-71
2022/02/02 10:27:28;;;;;;;4.45;1.30;;;;;;;;;;5053186;28;20056;-71
2022/02/02 10:30:16;;;;;;;5.63;1.27;;;;;;;;;;5035458;28;20041;-71
2022/02/02 10:32:45;;;;;;;3.60;1.20;;;;;;;;;;5053392;28;20045;-70
2022/02/02 10:35:28;;;;;;;4.60;1.02;;;;;;;;;;5053353;28;20400;-71
2022/02/02 10:38:18;;;;;;;;;;;;;;;;;;5038574;28;20115;-70
2022/02/02 10:40:53;;;;;;;4.55;1.00;;;;;;;;;;5052791;28;19920;-73
2022/02/02 10:43:21;;;;;;;3.72;1.90;;;;;;;;;;5035039;28;20036;-74
2022/02/02 10:45:49;;;;;;;4.78;1.95;;;;;;;;;;5052882;28;20048;-70
2022/02/02 10:48:33;;;;;;;4.53;2.25;;;;;;;;;;5053073;28;20045;-73
2022/02/02 10:52:09;;;;;;;7.35;1.80;;;;;;;;;;5053058;28;20041;-74
2022/02/02 10:54:12;;;;;;;5.18;2.92;;;;;;;;;;5040051;28;20052;-70
2022/02/02 10:59:37;;;;;;;2.65;1.00;;;;;;;;;;5052382;28;20110;-71
2022/02/02 11:07:32;;;;;;;3.92;1.27;;;;;;;;;;5052666;28;20048;-71
2022/02/02 11:10:03;;;;;;;1.98;1.10;;;;;;;;;;5052581;28;20045;-70
2022/02/02 11:12:32;;;;;;;2.22;0.93;;;;;;;;;;5052738;28;20065;-71
2022/02/02 11:15:04;;;;;;;2.90;1.00;;;;;;;;;;5052523;28;20037;-70
2022/02/02 11:17:44;;;;;;;1.70;1.10;;;;;;;;;;5052683;28;20041;-70
2022/02/02 11:20:15;;;;;;;3.20;1.08;;;;;;;;;;5052848;28;20155;-71
2022/02/02 11:22:50;;;;;;;2.50;1.73;;;;;;;;;;5052385;28;20132;-73
2022/02/02 11:25:24;;;;;;;2.53;0.88;;;;;;;;;;5051009;28;20037;-70
2022/02/02 11:27:52;;;;;;;2.55;0.90;;;;;;;;;;5052501;28;20075;-70
2022/02/02 11:30:27;;;;;;;1.38;0.70;;;;;;;;;;5052182;28;20044;-70
2022/02/02 11:32:57;;;;;;;1.92;1.00;;;;;;;;;;5052254;28;20471;-72
2022/02/02 11:35:46;;;;;;;2.90;1.15;;;;;;;;;;5052326;28;20084;-70
2022/02/02 11:38:33;;;;;;;4.00;0.90;;;;;;;;;;5052428;28;20096;-72
2022/02/02 11:41:39;;;;;;;3.22;1.45;;;;;;;;;;5051190;28;20493;-71
2022/02/02 11:46:47;;;;;;;4.10;0.82;;;;;;;;;;5034168;28;20102;-70
2022/02/02 11:49:18;;;;;;;3.53;1.60;;;;;;;;;;5052316;28;20147;-71
2022/02/02 11:51:46;;;;;;;3.38;1.00;;;;;;;;;;5034341;28;20076;-70
2022/02/02 11:54:14;;;;;;;1.55;1.20;;;;;;;;;;5052219;28;20040;-70
2022/02/02 11:56:58;;;;;;;4.03;1.10;;;;;;;;;;5051392;28;20041;-71
2022/02/02 12:00:13;;;;;;;2.80;0.75;;;;;;;;;;5052137;28;20391;-71
2022/02/02 12:03:09;;;;;;;3.58;0.90;;;;;;;;;;5052195;28;20519;-71
2022/02/02 12:06:17;;;;;;;4.15;0.88;;;;;;;;;;5051594;28;20057;-71
2022/02/02 12:49:42;;;;;;;4.78;1.15;;;;;;;;;;5055417;28;20037;-71
2022/02/02 13:00:20;;;;;;;1.55;0.63;;;;;;;;;;5055106;28;20044;-73
2022/02/02 13:02:49;;;;;;;2.20;0.90;;;;;;;;;;5054502;28;20044;-71
2022/02/02 13:05:21;;;;;;;3.95;1.13;;;;;;;;;;5054868;28;20049;-70
2022/02/02 13:07:49;;;;;;;3.55;1.58;;;;;;;;;;5037246;28;20045;-70
2022/02/02 13:10:21;;;;;;;1.77;0.50;;;;;;;;;;5053702;28;20045;-69
2022/02/02 13:26:22;;;;;;;1.52;0.75;;;;;;;;;;5033032;28;20053;-73
2022/02/02 13:57:05;;;;;;;1.67;0.85;;;;;;;;;;5043330;28;20041;-69
2022/02/02 14:07:39;;;;;;;1.85;0.60;;;;;;;;;;5042771;28;20049;-70
2022/02/02 14:10:27;;;;;;;2.47;0.85;;;;;;;;;;5053461;28;20040;-71
2022/02/02 14:32:18;;;;;;;4.18;1.20;;;;;;;;;;5052651;28;20057;-69
2022/02/02 14:35:06;;;;;;;2.33;0.80;;;;;;;;;;5052542;28;20036;-68
2022/02/02 14:37:41;;;;;;;2.55;1.05;;;;;;;;;;5053103;28;20086;-70
2022/02/02 14:40:31;;;;;;;6.38;1.55;;;;;;;;;;5053875;28;20104;-70
2022/02/02 14:43:02;;;;;;;3.63;1.65;;;;;;;;;;5053862;28;20060;-70
2022/02/02 14:45:33;;;;;;;3.25;1.10;;;;;;;;;;5053661;28;20040;-70
2022/02/02 14:48:15;;;;;;;2.13;1.40;;;;;;;;;;5036890;28;20044;-70
2022/02/02 14:51:34;;;;;;;2.05;1.27;;;;;;;;;;5033597;28;20052;-71
2022/02/02 15:31:52;;;;;;;7.20;3.50;;;;;;;;;;5051934;28;20033;-71
2022/02/02 15:34:38;;;;;;;5.35;1.48;;;;;;;;;;5052309;28;20048;-71
2022/02/02 15:37:28;;;;;;;6.57;1.27;;;;;;;;;;5052457;28;20075;-72
2022/02/02 15:58:37;;;;;;;10.48;1.80;;;;;;;;;;5032161;28;20045;-69
2022/02/02 16:03:52;;;;;;;4.85;1.25;;;;;;;;;;5035035;28;20044;-70
2022/02/02 16:06:23;;;;;;;7.63;1.17;;;;;;;;;;5041637;28;20407;-70
2022/02/02 16:09:01;;;;;;;4.90;1.40;;;;;;;;;;5023168;28;20048;-70
2022/02/02 16:11:31;;;;;;;6.10;1.30;;;;;;;;;;5037239;28;20128;-68
2022/02/02 16:14:03;;;;;;;4.00;1.10;;;;;;;;;;5035446;28;20504;-70
2022/02/02 16:19:11;;;;;;;4.78;1.52;;;;;;;;;;5047969;28;20083;-70
2022/02/02 16:24:47;;;;;;;5.35;1.13;;;;;;;;;;5035647;28;20044;-68
2022/02/02 16:35:54;;;;;;;5.28;1.70;;;;;;;;;;5034438;28;20042;-69
2022/02/02 16:38:25;;;;;;;6.72;2.67;;;;;;;;;;5034792;28;20041;-69
2022/02/02 16:42:54;;;;;;;4.18;1.42;;;;;;;;;;5043261;28;20037;-73
2022/02/02 16:43:52;;;;;;;6.15;1.70;;;;;;;;;;5037022;28;20037;-73
2022/02/02 16:46:20;;;;;;;2.05;0.95;;;;;;;;;;5016640;28;20068;-71
2022/02/02 16:48:47;;;;;;;7.57;1.40;;;;;;;;;;5042867;28;20045;-72
2022/02/02 16:51:14;;;;;;;4.55;1.40;;;;;;;;;;5028228;28;20403;-73
2022/02/02 16:53:47;;;;;;;4.40;1.40;;;;;;;;;;5027387;28;20128;-69
2022/02/02 17:32:35;;;;;;;9.45;3.05;;;;;;;;;;5046964;28;20034;-73
2022/02/02 17:37:54;;;;;;;7.53;2.42;;;;;;;;;;5052579;28;20033;-70
2022/02/02 18:18:56;;;;;;;6.88;3.35;;;;;;;;;;5051593;28;20068;-71
2022/02/02 18:21:25;;;;;;;6.15;3.35;;;;;;;;;;5042310;28;20485;-73
2022/02/02 18:26:57;;;;;;;10.45;3.20;;;;;;;;;;5025709;28;20069;-72
2022/02/02 18:32:13;;;;;;;10.90;3.45;;;;;;;;;;5042645;28;20099;-69
2022/02/02 18:34:51;;;;;;;6.22;3.15;;;;;;;;;;5024086;28;20548;-72
2022/02/02 18:42:17;;;;;;;5.93;3.08;;;;;;;;;;5042376;28;20424;-72
2022/02/02 18:44:13;;;;;;;4.93;2.65;;;;;;;;;;5033248;28;20069;-71
2022/02/02 19:07:53;;;;;;;8.30;3.53;;;;;;;;;;5042522;28;20049;-69
2022/02/02 19:40:42;;;;;;;6.32;2.83;;;;;;;;;;5041197;28;20040;-72
2022/02/02 20:02:14;;;;;;;7.18;3.90;;;;;;;;;;5045753;28;20464;-72
2022/02/02 20:04:53;;;;;;;16.02;6.65;;;;;;;;;;5034680;28;20047;-71
2022/02/02 20:10:00;;;;;;;9.05;3.67;;;;;;;;;;5032347;28;20045;-71
2022/02/02 20:12:35;;;;;;;8.98;4.30;;;;;;;;;;5032453;28;20053;-72
2022/02/02 20:15:03;;;;;;;13.70;4.55;;;;;;;;;;5039413;28;20049;-72
2022/02/02 20:17:33;;;;;;;10.25;3.97;;;;;;;;;;5051903;28;20063;-68
2022/02/02 20:20:12;;;;;;;12.65;4.18;;;;;;;;;;5052198;28;20053;-73
2022/02/02 20:22:39;;;;;;;8.63;4.07;;;;;;;;;;5052059;28;20045;-73
2022/02/02 20:25:08;;;;;;;11.15;4.35;;;;;;;;;;5052422;28;20412;-71
2022/02/02 20:27:37;;;;;;;11.32;4.38;;;;;;;;;;5051950;28;20046;-72
2022/02/02 20:30:06;;;;;;;8.65;2.90;;;;;;;;;;5030286;28;20049;-73
2022/02/02 20:32:33;;;;;;;12.57;4.00;;;;;;;;;;5051636;28;20052;-72
2022/02/02 20:35:01;;;;;;;8.30;3.83;;;;;;;;;;5051309;28;20387;-72
2022/02/02 20:37:28;;;;;;;8.63;2.42;;;;;;;;;;5044643;28;20044;-68
2022/02/02 20:40:00;;;;;;;9.25;2.47;;;;;;;;;;5051881;28;20362;-73
2022/02/02 20:43:32;;;;;;;8.88;2.58;;;;;;;;;;5033812;28;20041;-68
2022/02/02 21:14:26;;;;;;;8.90;4.63;;;;;;;;;;5034996;28;20044;-71
2022/02/02 21:16:54;;;;;;;9.18;4.22;;;;;;;;;;5034457;28;20049;-67
2022/02/02 21:19:28;;;;;;;10.30;3.35;;;;;;;;;;5035083;28;20056;-67
2022/02/02 21:22:00;;;;;;;10.13;3.15;;;;;;;;;;5034696;28;20041;-68
2022/02/02 21:27:40;;;;;;;8.50;2.92;;;;;;;;;;5034700;28;20041;-70
2022/02/02 21:29:47;;;;;;;7.30;3.20;;;;;;;;;;5029078;28;20089;-70
2022/02/02 21:32:15;;;;;;;8.77;2.85;;;;;;;;;;5034383;28;20049;-70
2022/02/02 21:34:49;;;;;;;8.13;3.00;;;;;;;;;;5034013;28;20052;-70
2022/02/02 21:37:18;;;;;;;6.00;2.80;;;;;;;;;;5030802;28;21997;-73
2022/02/02 21:39:55;;;;;;;10.68;3.40;;;;;;;;;;5034275;28;20092;-70
2022/02/02 21:42:22;;;;;;;11.07;3.08;;;;;;;;;;5016928;28;20038;-68
2022/02/02 21:44:50;;;;;;;7.20;3.20;;;;;;;;;;5034383;28;20103;-73
2022/02/02 21:47:18;;;;;;;10.20;3.58;;;;;;;;;;5033926;28;20041;-71
2022/02/02 21:49:46;;;;;;;8.38;3.60;;;;;;;;;;5034252;28;20120;-71
2022/02/02 21:52:17;;;;;;;9.48;3.03;;;;;;;;;;5047089;28;20033;-71
2022/02/02 21:54:44;;;;;;;8.32;3.05;;;;;;;;;;5054102;28;20078;-68
2022/02/02 21:57:12;;;;;;;12.40;3.53;;;;;;;;;;5053961;28;20057;-71
2022/02/02 21:59:39;;;;;;;12.65;3.13;;;;;;;;;;5053948;28;20445;-68
2022/02/02 22:02:07;;;;;;;9.43;3.40;;;;;;;;;;5054314;28;20037;-71
2022/02/02 22:04:38;;;;;;;10.55;4.15;;;;;;;;;;5069533;22;20056;-73
2022/02/02 22:07:05;;;;;;;6.93;3.35;;;;;;;;;;5051484;28;20168;-76
2022/02/02 22:09:35;;;;;;;8.73;3.40;;;;;;;;;;5035498;28;20045;-72
2022/02/02 22:12:03;;;;;;;7.63;2.97;;;;;;;;;;5053778;28;20119;-73
2022/02/02 22:14:33;;;;;;;6.97;2.67;;;;;;;;;;5054160;28;20076;-72
2022/02/02 22:17:03;;;;;;;6.00;2.67;;;;;;;;;;5054039;28;20036;-72
2022/02/02 22:19:31;;;;;;;10.85;2.47;;;;;;;;;;5035552;28;20435;-71
2022/02/02 22:22:03;;;;;;;9.68;3.00;;;;;;;;;;5041214;28;20033;-71
2022/02/02 22:24:42;;;;;;;7.63;2.97;;;;;;;;;;5040806;28;20480;-72
2022/02/02 22:27:10;;;;;;;9.45;2.45;;;;;;;;;;5053895;28;20103;-73
2022/02/02 22:29:39;;;;;;;7.93;2.80;;;;;;;;;;5007879;28;20059;-73
2022/02/02 22:32:07;;;;;;;8.75;2.90;;;;;;;;;;5016230;28;20048;-71
2022/02/02 22:34:36;;;;;;;11.43;2.95;;;;;;;;;;5015331;28;20087;-73
2022/02/02 22:37:03;;;;;;;11.98;3.00;;;;;;;;;;5012660;28;20075;-72
2022/02/02 22:39:31;;;;;;;12.20;3.50;;;;;;;;;;5033436;28;20033;-71
2022/02/02 22:42:00;;;;;;;7.97;3.45;;;;;;;;;;5046645;28;20412;-72
2022/02/02 22:44:30;;;;;;;9.05;3.13;;;;;;;;;;5053075;28;20048;-72
2022/02/02 22:47:04;;;;;;;6.93;2.60;;;;;;;;;;5053266;28;20037;-72
2022/02/02 22:49:36;;;;;;;7.75;2.55;;;;;;;;;;5053025;28;20045;-72
2022/02/02 22:52:03;;;;;;;12.70;3.05;;;;;;;;;;5052898;28;20128;-73
2022/02/02 22:54:32;;;;;;;7.68;2.63;;;;;;;;;;5053142;28;20045;-72
2022/02/02 22:57:01;;;;;;;8.75;2.70;;;;;;;;;;5053160;28;20059;-71
2022/02/02 22:59:35;;;;;;;8.18;2.38;;;;;;;;;;5052180;28;20039;-71
2022/02/02 23:02:15;;;;;;;11.88;2.50;;;;;;;;;;5053014;28;20120;-71
2022/02/02 23:04:44;;;;;;;9.00;2.63;;;;;;;;;;5052849;28;20041;-72
2022/02/02 23:07:14;;;;;;;8.20;1.67;;;;;;;;;;5053144;28;20136;-73
2022/02/02 23:09:43;;;;;;;5.65;1.90;;;;;;;;;;5052986;28;20696;-73
2022/02/02 23:12:11;;;;;;;3.75;2.08;;;;;;;;;;5052611;28;20048;-73
2022/02/02 23:14:43;;;;;;;5.05;2.20;;;;;;;;;;5052858;28;20049;-73
2022/02/02 23:17:11;;;;;;;12.02;2.35;;;;;;;;;;5050491;28;20045;-72
2022/02/02 23:19:43;;;;;;;5.53;1.77;;;;;;;;;;5032221;28;20048;-74
2022/02/02 23:22:14;;;;;;;9.82;2.60;;;;;;;;;;4997660;28;20123;-72
2022/02/02 23:24:47;;;;;;;11.30;2.50;;;;;;;;;;5033006;28;20046;-72
2022/02/02 23:27:15;;;;;;;10.10;2.05;;;;;;;;;;5033309;28;20034;-73
2022/02/02 23:29:52;;;;;;;8.85;2.10;;;;;;;;;;5032910;28;20431;-74
2022/02/02 23:32:23;;;;;;;7.03;2.10;;;;;;;;;;5015141;28;20144;-74
2022/02/02 23:34:51;;;;;;;10.00;1.90;;;;;;;;;;5032892;28;20503;-72
2022/02/02 23:37:18;;;;;;;7.78;2.28;;;;;;;;;;5015209;28;20413;-73
2022/02/02 23:40:07;;;;;;;7.13;1.80;;;;;;;;;;5032994;28;20120;-72
2022/02/02 23:42:39;;;;;;;6.95;1.80;;;;;;;;;;5033093;28;20408;-72
2022/02/02 23:45:08;;;;;;;8.45;2.20;;;;;;;;;;5014951;28;20078;-72
2022/02/02 23:47:39;;;;;;;9.63;2.00;;;;;;;;;;5032565;28;20038;-72
2022/02/02 23:50:13;;;;;;;9.20;2.40;;;;;;;;;;5032799;28;20041;-72
2022/02/02 23:55:21;;;;;;;9.90;2.40;;;;;;;;;;5032518;28;20509;-71
2022/02/02 23:57:58;;;;;;;9.52;2.03;;;;;;;;;;5032404;28;20049;-74
